createdAt,value
2022-10-18T04:03:35.124Z,15.00
2022-10-18T04:07:46.676Z,15.00
2022-10-18T04:11:58.210Z,14.99
2022-10-18T04:16:09.713Z,14.95
2022-10-18T04:20:21.242Z,15.02
2022-10-18T04:24:33.030Z,15.07
2022-10-18T04:28:45.144Z,15.18
2022-10-18T04:32:56.716Z,15.27
2022-10-18T04:37:08.310Z,15.34
2022-10-18T04:41:19.840Z,15.37
2022-10-18T04:45:31.375Z,15.44
2022-10-18T04:49:42.920Z,15.46
2022-10-18T04:53:54.907Z,15.48
2022-10-18T04:58:06.428Z,15.49
2022-10-18T05:02:17.978Z,15.50
2022-10-18T05:06:29.557Z,15.53
2022-10-18T05:10:41.100Z,15.51
2022-10-18T05:14:52.618Z,15.45
2022-10-18T05:19:05.660Z,15.45
2022-10-18T05:23:17.208Z,15.39
2022-10-18T05:27:29.200Z,15.37
2022-10-18T05:31:40.705Z,15.33
2022-10-18T05:35:52.198Z,15.33
2022-10-18T05:40:04.311Z,15.35
2022-10-18T05:44:15.895Z,15.36
2022-10-18T05:48:27.542Z,15.36
2022-10-18T05:52:39.054Z,15.33
2022-10-18T05:56:50.608Z,15.33
2022-10-18T06:01:03.122Z,15.34
2022-10-18T06:05:14.648Z,15.36
2022-10-18T06:09:26.321Z,15.39
2022-10-18T06:13:45.980Z,15.43
2022-10-18T06:17:59.021Z,15.47
2022-10-18T06:22:11.505Z,15.49
2022-10-18T06:26:23.398Z,15.57
2022-10-18T06:30:35.141Z,15.63
2022-10-18T06:34:46.637Z,15.67
2022-10-18T06:38:59.904Z,15.69
2022-10-18T06:43:20.652Z,15.71
2022-10-18T06:47:33.012Z,15.72
2022-10-18T06:51:44.659Z,15.74
2022-10-18T06:56:14.324Z,15.77
2022-10-18T07:00:25.995Z,15.81
2022-10-18T07:04:37.593Z,15.87
2022-10-18T07:08:50.265Z,15.97
2022-10-18T07:13:30.482Z,16.05
2022-10-18T07:17:33.481Z,16.15
2022-10-18T07:21:45.157Z,16.31
2022-10-18T07:25:56.708Z,16.47
2022-10-18T07:30:10.036Z,16.47
2022-10-18T07:34:21.539Z,16.43
2022-10-18T07:38:33.318Z,16.47
2022-10-18T07:42:44.818Z,16.45
2022-10-18T07:46:56.296Z,16.46
2022-10-18T07:51:08.874Z,16.48
2022-10-18T07:55:20.772Z,16.47
2022-10-18T07:59:32.468Z,16.53
2022-10-18T08:03:44.191Z,16.59
2022-10-18T08:07:56.212Z,16.62
2022-10-18T08:12:07.733Z,16.63
2022-10-18T08:16:27.656Z,16.62
2022-10-18T08:20:44.240Z,16.65
2022-10-18T08:24:55.763Z,16.69
2022-10-18T08:29:21.875Z,16.78
2022-10-18T08:33:36.250Z,16.80
2022-10-18T08:37:48.485Z,16.84
2022-10-18T08:42:12.199Z,16.91
2022-10-18T08:46:24.531Z,17.07
2022-10-18T08:50:37.763Z,17.12
2022-10-18T08:55:00.053Z,17.32
2022-10-18T08:59:12.900Z,17.34
2022-10-18T09:03:56.733Z,17.35
2022-10-18T09:08:41.579Z,17.49
2022-10-18T09:13:02.223Z,17.65
2022-10-18T09:17:54.152Z,17.84
2022-10-18T09:22:13.920Z,17.91
2022-10-18T09:26:25.984Z,17.97
2022-10-18T09:30:37.454Z,18.01
2022-10-18T09:34:59.648Z,17.97
2022-10-18T09:39:14.410Z,18.13
2022-10-18T09:43:42.252Z,18.33
2022-10-18T09:48:05.526Z,18.47
2022-10-18T09:52:28.227Z,18.57
2022-10-18T09:56:52.227Z,18.52
2022-10-18T10:01:04.038Z,18.46
2022-10-18T10:05:15.766Z,18.44
2022-10-18T10:09:36.051Z,18.47
2022-10-18T10:13:48.444Z,18.47
2022-10-18T10:18:06.079Z,18.41
2022-10-18T10:22:35.157Z,18.49
2022-10-18T10:26:47.259Z,18.51
2022-10-18T10:31:29.356Z,18.57
2022-10-18T10:35:53.047Z,18.59
2022-10-18T10:40:24.073Z,18.77
2022-10-18T10:44:36.975Z,19.24
2022-10-18T10:49:21.669Z,19.44
2022-10-18T10:53:50.640Z,19.38
2022-10-18T10:58:02.363Z,19.35
2022-10-18T11:02:13.958Z,19.37
2022-10-18T11:06:33.789Z,19.27
2022-10-18T11:10:57.307Z,19.38
2022-10-18T11:15:12.007Z,19.41
2022-10-18T11:19:39.159Z,19.40
2022-10-18T11:23:51.304Z,19.64
2022-10-18T11:28:11.361Z,19.61
2022-10-18T11:32:38.164Z,19.65
2022-10-18T11:37:29.078Z,19.64
2022-10-18T11:41:53.915Z,19.63
2022-10-18T11:46:24.002Z,19.61
2022-10-18T11:50:50.611Z,19.50
2022-10-18T11:55:10.906Z,19.35
2022-10-18T11:59:32.450Z,19.30
2022-10-18T12:04:18.049Z,19.15
2022-10-18T12:08:39.928Z,19.04
2022-10-18T12:13:02.040Z,18.98
2022-10-18T12:17:47.467Z,18.95
2022-10-18T12:22:27.963Z,18.81
2022-10-18T12:26:40.136Z,18.74
2022-10-18T12:31:02.284Z,18.75
2022-10-18T12:35:19.161Z,18.84
2022-10-18T12:39:43.835Z,18.92
2022-10-18T12:44:16.769Z,19.00
2022-10-18T12:48:43.187Z,19.11
2022-10-18T12:53:09.868Z,18.96
2022-10-18T12:57:24.347Z,19.00
2022-10-18T13:01:51.145Z,18.96
2022-10-18T13:06:06.652Z,18.95
2022-10-18T13:10:18.352Z,18.93
2022-10-18T13:14:44.132Z,18.95
2022-10-18T13:19:23.286Z,18.87
2022-10-18T13:24:28.578Z,18.86
2022-10-18T13:28:51.041Z,18.92
2022-10-18T13:33:31.361Z,18.93
2022-10-18T13:37:42.862Z,18.95
2022-10-18T13:41:57.743Z,19.07
2022-10-18T13:46:09.584Z,19.05
2022-10-18T13:50:34.128Z,19.08
2022-10-18T13:55:22.484Z,19.07
2022-10-18T14:00:11.542Z,18.99
2022-10-18T14:04:42.348Z,18.99
2022-10-18T14:09:03.355Z,19.00
2022-10-18T14:13:26.480Z,18.93
2022-10-18T14:17:46.823Z,18.94
2022-10-18T14:22:09.365Z,18.85
2022-10-18T14:26:21.002Z,18.79
2022-10-18T14:30:32.494Z,18.73
2022-10-18T14:34:44.435Z,18.73
2022-10-18T14:39:04.747Z,18.67
2022-10-18T14:43:19.860Z,18.66
2022-10-18T14:47:33.684Z,18.61
2022-10-18T14:51:49.879Z,18.64
2022-10-18T14:56:05.744Z,18.58
2022-10-18T15:00:25.721Z,18.60
2022-10-18T15:04:37.259Z,18.59
2022-10-18T15:08:54.124Z,18.47
2022-10-18T15:13:10.310Z,18.43
2022-10-18T15:17:28.418Z,18.32
2022-10-18T15:21:59.151Z,18.22
2022-10-18T15:26:24.433Z,18.05
2022-10-18T15:30:35.882Z,17.94
2022-10-18T15:34:47.486Z,17.85
2022-10-18T15:39:17.639Z,17.74
2022-10-18T15:43:29.064Z,17.74
2022-10-18T15:47:56.243Z,17.69
2022-10-18T15:52:07.745Z,17.64
2022-10-18T15:56:32.723Z,17.60
2022-10-18T16:00:45.680Z,17.53
2022-10-18T16:04:59.887Z,17.48
2022-10-18T16:09:22.789Z,17.34
2022-10-18T16:13:34.850Z,17.34
2022-10-18T16:17:47.773Z,17.35
2022-10-18T16:22:06.090Z,17.32
2022-10-18T16:26:19.741Z,17.18
2022-10-18T16:30:34.110Z,17.20
2022-10-18T16:34:45.636Z,17.16
2022-10-18T16:38:58.895Z,17.12
2022-10-18T16:43:10.676Z,17.11
2022-10-18T16:47:22.203Z,17.09
2022-10-18T16:51:33.756Z,17.09
2022-10-18T16:55:45.507Z,17.10
2022-10-18T16:59:57.298Z,17.09
2022-10-18T17:04:08.839Z,17.07
2022-10-18T17:08:23.617Z,17.01
2022-10-18T17:12:35.305Z,16.98
2022-10-18T17:16:50.758Z,16.86
2022-10-18T17:21:06.187Z,16.83
2022-10-18T17:25:18.927Z,16.76
2022-10-18T17:29:30.455Z,16.77
2022-10-18T17:33:42.226Z,16.76
2022-10-18T17:37:53.762Z,16.73
2022-10-18T17:42:05.259Z,16.66
2022-10-18T17:46:17.783Z,16.57
2022-10-18T17:50:29.379Z,16.47
2022-10-18T17:54:40.919Z,16.40
2022-10-18T17:58:52.807Z,16.30
2022-10-18T18:03:04.354Z,16.24
2022-10-18T18:07:15.865Z,16.21
2022-10-18T18:11:28.749Z,16.12
2022-10-18T18:15:40.256Z,16.08
2022-10-18T18:19:51.794Z,16.03
2022-10-18T18:24:03.480Z,16.00
2022-10-18T18:28:15.539Z,15.97
2022-10-18T18:32:27.071Z,15.93
2022-10-18T18:36:39.167Z,15.95
2022-10-18T18:40:50.855Z,15.96
2022-10-18T18:45:02.572Z,15.95
2022-10-18T18:49:14.236Z,15.95
2022-10-18T18:53:28.689Z,15.92
2022-10-18T18:57:41.475Z,15.95
2022-10-18T19:01:53.105Z,15.88
2022-10-18T19:06:06.817Z,15.89
2022-10-18T19:10:18.327Z,15.83
2022-10-18T19:14:29.845Z,15.76
2022-10-18T19:18:41.334Z,15.69
2022-10-18T19:22:53.560Z,15.69
2022-10-18T19:27:12.569Z,15.64
2022-10-18T19:31:24.304Z,15.65
2022-10-18T19:35:35.839Z,15.60
2022-10-18T19:39:47.323Z,15.57
2022-10-18T19:43:58.842Z,15.60
2022-10-18T19:48:13.325Z,15.62
2022-10-18T19:52:25.097Z,15.59
2022-10-18T19:56:36.616Z,15.63
2022-10-18T20:00:52.806Z,15.67
2022-10-18T20:05:04.721Z,15.59
2022-10-18T20:09:19.575Z,15.58
2022-10-18T20:13:32.866Z,15.59
2022-10-18T20:17:44.455Z,15.56
2022-10-18T20:21:57.590Z,15.52
2022-10-18T20:26:18.018Z,15.50
2022-10-18T20:30:31.478Z,15.36
2022-10-18T20:34:42.963Z,15.40
2022-10-18T20:38:54.986Z,15.34
2022-10-18T20:43:06.583Z,15.27
2022-10-18T20:47:18.111Z,15.27
2022-10-18T20:51:29.703Z,15.21
2022-10-18T20:55:42.696Z,15.23
2022-10-18T20:59:54.216Z,15.22
2022-10-18T21:04:08.870Z,15.19
2022-10-18T21:08:20.359Z,15.18
2022-10-18T21:12:32.155Z,15.19
2022-10-18T21:16:44.121Z,15.19
2022-10-18T21:20:55.871Z,15.18
2022-10-18T21:25:08.022Z,15.13
2022-10-18T21:29:22.176Z,15.11
